首页
METAR-TAF:

METAR-TAF

机场 :

豪尔赫·查韦斯国际机场

利馬, 秘鲁

纬度: 12-00S, 经度: 077-07W, 海拔: 12米

当前天气观测

该预报发布于51分钟前的23:00 UTC
风速9节,风向
温度 18°C
湿度 83%
气压 1013 hPa
能见度10公里或以上
散云层高于1100英尺
多云层高于2300英尺

METAR: SPJC 212300Z 18009KT 9999 SCT011 BKN023 18/15 Q1013 NOSIG RMK PP000

时间: 18:51 (23:51 UTC)

预报

该预报发布于51分钟前的23:00 UTC
预报有效从22日的 00点(UTC)到 22日的 24点(UTC)
风速6节,风向
能见度10公里或以上
多云层高于2200英尺
短暂存在
从 22日的 08点(UTC)到 22日的 10点(UTC)
散云层高于1000英尺
阴天层高于1400英尺
从 22日的 1300点(UTC)
风速6节,风向西转西南
能见度10公里或以上
多云层高于3000英尺
从 22日的 2100点(UTC)
风速10节,风向
能见度10公里或以上
多云层高于2500英尺

TAF: SPJC 212300Z 2200/2224 17006KT 9999 BKN022 TX21/2219Z TN17/2210Z TEMPO 2208/2210 SCT010 OVC014 FM221300 24006KT 9999 BKN030 FM222100 19010KT 9999 BKN025

超过4000个机场的气象观测和天气预报(METAR&TAF报告)。

可查询的气象台以黄色和红色小点在地图上表示。

将鼠标移到小点上方,可查看气象台名称。

然后点击查看天气观测和预报。

如需切换地图:点击带黑十字的绿色按钮放大地图;点击带横线的绿色按钮缩小地图;或者点击绿色箭头查看邻近地区的地图。


METAR-TAF: